sensor_id;sensor_type;location;lat;lon;timestamp;pressure;altitude;pressure_sealevel;temperature;humidity
10720;BME280;5411;58.386;15.560;2023-01-31T00:00:55;98881.69;;;2.38;65.50
10720;BME280;5411;58.386;15.560;2023-01-31T00:03:24;98885.16;;;2.39;65.10
10720;BME280;5411;58.386;15.560;2023-01-31T00:05:52;98897.31;;;2.40;65.66
10720;BME280;5411;58.386;15.560;2023-01-31T00:08:21;98887.97;;;2.37;65.72
10720;BME280;5411;58.386;15.560;2023-01-31T00:10:49;98892.44;;;2.37;66.13
10720;BME280;5411;58.386;15.560;2023-01-31T00:13:17;98894.44;;;2.35;66.31
10720;BME280;5411;58.386;15.560;2023-01-31T00:15:46;98904.00;;;2.36;66.52
10720;BME280;5411;58.386;15.560;2023-01-31T00:18:16;98902.34;;;2.35;65.81
10720;BME280;5411;58.386;15.560;2023-01-31T00:20:45;98902.72;;;2.32;65.66
10720;BME280;5411;58.386;15.560;2023-01-31T00:23:14;98905.19;;;2.33;66.06
10720;BME280;5411;58.386;15.560;2023-01-31T00:25:43;98910.81;;;2.30;66.23
10720;BME280;5411;58.386;15.560;2023-01-31T00:28:11;98912.22;;;2.26;66.35
10720;BME280;5411;58.386;15.560;2023-01-31T00:30:41;98925.84;;;2.30;66.73
10720;BME280;5411;58.386;15.560;2023-01-31T00:33:09;98923.56;;;2.27;65.64
10720;BME280;5411;58.386;15.560;2023-01-31T00:35:39;98924.94;;;2.23;66.34
10720;BME280;5411;58.386;15.560;2023-01-31T00:38:12;98928.22;;;2.25;65.46
10720;BME280;5411;58.386;15.560;2023-01-31T00:40:41;98941.41;;;2.25;66.03
10720;BME280;5411;58.386;15.560;2023-01-31T00:43:09;98932.88;;;2.23;65.98
10720;BME280;5411;58.386;15.560;2023-01-31T00:45:37;98942.41;;;2.24;65.57
10720;BME280;5411;58.386;15.560;2023-01-31T00:48:10;98947.50;;;2.25;65.69
10720;BME280;5411;58.386;15.560;2023-01-31T00:50:40;98941.41;;;2.25;65.89
10720;BME280;5411;58.386;15.560;2023-01-31T00:53:08;98941.59;;;2.23;66.83
10720;BME280;5411;58.386;15.560;2023-01-31T00:55:36;98949.69;;;2.22;66.70
10720;BME280;5411;58.386;15.560;2023-01-31T00:58:05;98950.06;;;2.19;67.46
10720;BME280;5411;58.386;15.560;2023-01-31T01:00:33;98953.06;;;2.15;67.49
10720;BME280;5411;58.386;15.560;2023-01-31T01:03:10;98955.25;;;2.12;67.46
10720;BME280;5411;58.386;15.560;2023-01-31T01:05:40;98955.97;;;2.06;68.07
10720;BME280;5411;58.386;15.560;2023-01-31T01:08:09;98962.91;;;2.07;68.12
10720;BME280;5411;58.386;15.560;2023-01-31T01:10:37;98970.53;;;2.02;67.86
10720;BME280;5411;58.386;15.560;2023-01-31T01:13:07;98965.25;;;2.02;67.80
10720;BME280;5411;58.386;15.560;2023-01-31T01:15:37;98971.53;;;2.01;68.06
10720;BME280;5411;58.386;15.560;2023-01-31T01:18:06;98969.88;;;2.00;67.61
10720;BME280;5411;58.386;15.560;2023-01-31T01:20:36;98991.63;;;2.02;67.78
10720;BME280;5411;58.386;15.560;2023-01-31T01:23:05;98998.53;;;2.03;67.51
10720;BME280;5411;58.386;15.560;2023-01-31T01:25:41;98991.44;;;2.03;67.72
10720;BME280;5411;58.386;15.560;2023-01-31T01:28:10;99001.53;;;2.00;68.20
10720;BME280;5411;58.386;15.560;2023-01-31T01:30:38;99000.91;;;1.98;67.28
10720;BME280;5411;58.386;15.560;2023-01-31T01:33:06;99002.91;;;1.96;67.95
10720;BME280;5411;58.386;15.560;2023-01-31T01:35:35;98997.19;;;1.92;67.83
10720;BME280;5411;58.386;15.560;2023-01-31T01:38:05;98996.19;;;1.93;67.20
10720;BME280;5411;58.386;15.560;2023-01-31T01:40:35;98996.19;;;1.93;67.02
10720;BME280;5411;58.386;15.560;2023-01-31T01:43:03;98996.34;;;1.92;67.33
10720;BME280;5411;58.386;15.560;2023-01-31T01:45:32;98994.72;;;1.91;67.21
10720;BME280;5411;58.386;15.560;2023-01-31T01:48:05;98998.19;;;1.91;66.79
10720;BME280;5411;58.386;15.560;2023-01-31T01:50:37;98995.91;;;1.88;67.67
10720;BME280;5411;58.386;15.560;2023-01-31T01:53:12;99003.97;;;1.87;66.93
10720;BME280;5411;58.386;15.560;2023-01-31T01:55:47;99005.63;;;1.88;66.81
10720;BME280;5411;58.386;15.560;2023-01-31T01:58:23;99007.44;;;1.87;67.46
10720;BME280;5411;58.386;15.560;2023-01-31T02:00:57;99017.97;;;1.87;67.65
10720;BME280;5411;58.386;15.560;2023-01-31T02:03:26;99019.19;;;1.85;67.84
10720;BME280;5411;58.386;15.560;2023-01-31T02:05:57;99014.63;;;1.78;67.75
10720;BME280;5411;58.386;15.560;2023-01-31T02:08:30;99025.16;;;1.78;67.25
10720;BME280;5411;58.386;15.560;2023-01-31T02:11:03;99035.06;;;1.76;67.59
10720;BME280;5411;58.386;15.560;2023-01-31T02:13:34;99029.97;;;1.75;67.84
10720;BME280;5411;58.386;15.560;2023-01-31T02:16:05;99026.50;;;1.74;67.39
10720;BME280;5411;58.386;15.560;2023-01-31T02:18:34;99035.25;;;1.75;67.39
10720;BME280;5411;58.386;15.560;2023-01-31T02:21:38;99044.97;;;1.74;67.51
10720;BME280;5411;58.386;15.560;2023-01-31T02:31:03;99059.78;;;1.75;69.04
10720;BME280;5411;58.386;15.560;2023-01-31T02:33:43;99060.16;;;1.72;69.41
10720;BME280;5411;58.386;15.560;2023-01-31T02:36:23;99055.06;;;1.71;69.98
10720;BME280;5411;58.386;15.560;2023-01-31T02:39:02;99063.97;;;1.70;69.96
10720;BME280;5411;58.386;15.560;2023-01-31T02:41:44;99066.78;;;1.68;69.89
10720;BME280;5411;58.386;15.560;2023-01-31T02:44:20;99066.97;;;1.67;70.36
10720;BME280;5411;58.386;15.560;2023-01-31T02:47:19;99081.78;;;1.68;70.55
10720;BME280;5411;58.386;15.560;2023-01-31T02:49:54;99086.22;;;1.67;70.61
10720;BME280;5411;58.386;15.560;2023-01-31T02:52:30;99076.03;;;1.64;70.24
10720;BME280;5411;58.386;15.560;2023-01-31T02:55:06;99068.13;;;1.64;71.39
10720;BME280;5411;58.386;15.560;2023-01-31T02:57:56;99070.94;;;1.63;70.58
10720;BME280;5411;58.386;15.560;2023-01-31T03:00:28;99071.13;;;1.61;70.89
10720;BME280;5411;58.386;15.560;2023-01-31T03:03:04;99071.31;;;1.60;70.33
10720;BME280;5411;58.386;15.560;2023-01-31T03:05:34;99079.22;;;1.60;70.71
10720;BME280;5411;58.386;15.560;2023-01-31T03:08:04;99060.66;;;1.53;70.52
10720;BME280;5411;58.386;15.560;2023-01-31T03:10:57;99072.47;;;1.57;70.92
10720;BME280;5411;58.386;15.560;2023-01-31T03:13:41;99083.03;;;1.57;70.93
10720;BME280;5411;58.386;15.560;2023-01-31T03:16:18;99077.94;;;1.56;71.32
10720;BME280;5411;58.386;15.560;2023-01-31T03:19:13;99071.00;;;1.55;70.31
10720;BME280;5411;58.386;15.560;2023-01-31T03:21:46;99085.38;;;1.52;70.75
10720;BME280;5411;58.386;15.560;2023-01-31T03:24:17;99087.81;;;1.54;70.14
10720;BME280;5411;58.386;15.560;2023-01-31T03:26:47;99107.91;;;1.55;71.06
10720;BME280;5411;58.386;15.560;2023-01-31T03:29:16;99084.19;;;1.55;70.19
10720;BME280;5411;58.386;15.560;2023-01-31T03:31:49;99094.38;;;1.58;70.78
10720;BME280;5411;58.386;15.560;2023-01-31T03:34:21;99098.66;;;1.59;69.86
10720;BME280;5411;58.386;15.560;2023-01-31T03:36:55;99089.13;;;1.58;70.14
10720;BME280;5411;58.386;15.560;2023-01-31T03:39:35;99108.22;;;1.60;70.51
10720;BME280;5411;58.386;15.560;2023-01-31T03:42:12;99093.56;;;1.57;70.97
10720;BME280;5411;58.386;15.560;2023-01-31T03:44:48;99095.22;;;1.58;70.12
10720;BME280;5411;58.386;15.560;2023-01-31T03:47:24;99088.13;;;1.59;70.24
10720;BME280;5411;58.386;15.560;2023-01-31T03:49:54;99089.94;;;1.58;70.50
10720;BME280;5411;58.386;15.560;2023-01-31T03:52:45;99102.13;;;1.59;70.23
10720;BME280;5411;58.386;15.560;2023-01-31T03:55:16;99089.78;;;1.60;70.98
10720;BME280;5411;58.386;15.560;2023-01-31T03:57:49;99101.75;;;1.62;70.66
10720;BME280;5411;58.386;15.560;2023-01-31T04:00:20;99089.56;;;1.61;70.89
10720;BME280;5411;58.386;15.560;2023-01-31T04:02:55;99103.72;;;1.60;70.46
10720;BME280;5411;58.386;15.560;2023-01-31T04:05:26;99104.56;;;1.61;70.31
10720;BME280;5411;58.386;15.560;2023-01-31T04:07:59;99095.03;;;1.60;70.42
10720;BME280;5411;58.386;15.560;2023-01-31T04:10:31;99099.66;;;1.58;70.29
10720;BME280;5411;58.386;15.560;2023-01-31T04:12:59;99103.94;;;1.59;70.84
10720;BME280;5411;58.386;15.560;2023-01-31T04:15:28;99109.38;;;1.57;70.06
10720;BME280;5411;58.386;15.560;2023-01-31T04:17:56;99097.88;;;1.50;69.97
10720;BME280;5411;58.386;15.560;2023-01-31T04:20:25;99101.81;;;1.54;70.28
10720;BME280;5411;58.386;15.560;2023-01-31T04:22:53;99101.16;;;1.52;70.51
10720;BME280;5411;58.386;15.560;2023-01-31T04:25:23;99106.63;;;1.51;71.31
10720;BME280;5411;58.386;15.560;2023-01-31T04:27:51;99098.06;;;1.49;71.16
10720;BME280;5411;58.386;15.560;2023-01-31T04:30:20;99105.97;;;1.49;71.74
10720;BME280;5411;58.386;15.560;2023-01-31T04:32:49;99105.53;;;1.45;71.63
10720;BME280;5411;58.386;15.560;2023-01-31T04:35:17;99108.31;;;1.43;70.94
10720;BME280;5411;58.386;15.560;2023-01-31T04:37:46;99107.84;;;1.40;70.93
10720;BME280;5411;58.386;15.560;2023-01-31T04:40:20;99119.38;;;1.39;71.40
10720;BME280;5411;58.386;15.560;2023-01-31T04:42:51;99109.00;;;1.37;71.86
10720;BME280;5411;58.386;15.560;2023-01-31T04:45:20;99104.91;;;1.35;72.48
10720;BME280;5411;58.386;15.560;2023-01-31T04:47:50;99108.75;;;1.32;72.48
10720;BME280;5411;58.386;15.560;2023-01-31T04:50:19;99102.34;;;1.27;73.11
10720;BME280;5411;58.386;15.560;2023-01-31T04:52:48;99101.84;;;1.23;73.42
10720;BME280;5411;58.386;15.560;2023-01-31T04:55:17;99104.84;;;1.20;74.30
10720;BME280;5411;58.386;15.560;2023-01-31T04:57:53;99100.94;;;1.16;74.49
10720;BME280;5411;58.386;15.560;2023-01-31T05:00:32;99099.47;;;1.14;75.46
10720;BME280;5411;58.386;15.560;2023-01-31T05:03:01;99092.22;;;1.07;75.63
10720;BME280;5411;58.386;15.560;2023-01-31T05:05:29;99090.78;;;1.05;76.13
10720;BME280;5411;58.386;15.560;2023-01-31T05:08:02;99079.13;;;0.99;77.08
10720;BME280;5411;58.386;15.560;2023-01-31T05:10:33;99080.63;;;0.94;77.39
10720;BME280;5411;58.386;15.560;2023-01-31T05:13:04;99082.97;;;0.89;77.44
10720;BME280;5411;58.386;15.560;2023-01-31T05:15:34;99082.66;;;0.84;78.03
10720;BME280;5411;58.386;15.560;2023-01-31T05:18:04;99084.34;;;0.77;78.24
10720;BME280;5411;58.386;15.560;2023-01-31T05:20:35;99085.84;;;0.71;79.19
10720;BME280;5411;58.386;15.560;2023-01-31T05:23:07;99082.72;;;0.67;79.94
10720;BME280;5411;58.386;15.560;2023-01-31T05:25:36;99096.59;;;0.61;79.83
10720;BME280;5411;58.386;15.560;2023-01-31T05:28:06;99094.63;;;0.55;79.77
10720;BME280;5411;58.386;15.560;2023-01-31T05:30:44;99086.44;;;0.50;80.68
10720;BME280;5411;58.386;15.560;2023-01-31T05:33:13;99080.03;;;0.45;81.55
10720;BME280;5411;58.386;15.560;2023-01-31T05:35:41;99097.78;;;0.43;81.52
10720;BME280;5411;58.386;15.560;2023-01-31T05:38:10;99096.19;;;0.33;82.33
10720;BME280;5411;58.386;15.560;2023-01-31T05:40:38;99107.53;;;0.34;82.87
10720;BME280;5411;58.386;15.560;2023-01-31T05:43:08;99103.75;;;0.28;82.66
10720;BME280;5411;58.386;15.560;2023-01-31T05:45:37;99106.22;;;0.30;82.57
10720;BME280;5411;58.386;15.560;2023-01-31T05:48:06;99104.56;;;0.29;83.02
10720;BME280;5411;58.386;15.560;2023-01-31T05:50:34;99103.75;;;0.28;83.34
10720;BME280;5411;58.386;15.560;2023-01-31T05:53:03;99101.28;;;0.27;82.91
10720;BME280;5411;58.386;15.560;2023-01-31T05:55:32;99110.97;;;0.34;82.21
10720;BME280;5411;58.386;15.560;2023-01-31T05:58:00;99110.66;;;0.38;82.03
10720;BME280;5411;58.386;15.560;2023-01-31T06:00:30;99117.19;;;0.42;81.81
10720;BME280;5411;58.386;15.560;2023-01-31T06:02:59;99101.91;;;0.45;81.10
10720;BME280;5411;58.386;15.560;2023-01-31T06:05:27;99102.22;;;0.50;80.88
10720;BME280;5411;58.386;15.560;2023-01-31T06:07:56;99107.63;;;0.57;81.18
10720;BME280;5411;58.386;15.560;2023-01-31T06:10:25;99112.38;;;0.61;80.25
10720;BME280;5411;58.386;15.560;2023-01-31T06:12:56;99108.09;;;0.60;80.05
10720;BME280;5411;58.386;15.560;2023-01-31T06:15:25;99107.25;;;0.68;79.25
10720;BME280;5411;58.386;15.560;2023-01-31T06:17:55;99114.63;;;0.73;79.68
10720;BME280;5411;58.386;15.560;2023-01-31T06:20:23;99111.84;;;0.74;79.43
10720;BME280;5411;58.386;15.560;2023-01-31T06:22:52;99111.50;;;0.77;79.56
10720;BME280;5411;58.386;15.560;2023-01-31T06:25:20;99107.06;;;0.78;79.52
10720;BME280;5411;58.386;15.560;2023-01-31T06:27:49;99103.78;;;0.76;79.88
10720;BME280;5411;58.386;15.560;2023-01-31T06:30:18;99107.88;;;0.78;79.74
10720;BME280;5411;58.386;15.560;2023-01-31T06:32:47;99098.16;;;0.79;79.60
10720;BME280;5411;58.386;15.560;2023-01-31T06:35:17;99105.69;;;0.82;79.44
10720;BME280;5411;58.386;15.560;2023-01-31T06:37:46;99101.25;;;0.82;79.05
10720;BME280;5411;58.386;15.560;2023-01-31T06:40:14;99098.63;;;0.82;79.15
10720;BME280;5411;58.386;15.560;2023-01-31T06:42:43;99096.66;;;0.84;78.63
10720;BME280;5411;58.386;15.560;2023-01-31T06:45:12;99096.13;;;0.89;79.16
10720;BME280;5411;58.386;15.560;2023-01-31T06:47:40;99091.69;;;0.89;78.64
10720;BME280;5411;58.386;15.560;2023-01-31T06:50:11;99093.34;;;0.90;78.68
10720;BME280;5411;58.386;15.560;2023-01-31T06:52:42;99092.19;;;0.93;78.71
10720;BME280;5411;58.386;15.560;2023-01-31T06:55:11;99103.16;;;0.96;77.82
10720;BME280;5411;58.386;15.560;2023-01-31T06:57:45;99103.81;;;0.98;77.99
10720;BME280;5411;58.386;15.560;2023-01-31T07:00:15;99096.56;;;1.00;77.40
10720;BME280;5411;58.386;15.560;2023-01-31T07:02:44;99100.03;;;1.01;78.01
10720;BME280;5411;58.386;15.560;2023-01-31T07:05:12;99109.56;;;1.02;78.13
10720;BME280;5411;58.386;15.560;2023-01-31T07:07:47;99104.94;;;1.04;78.23
10720;BME280;5411;58.386;15.560;2023-01-31T07:10:16;99103.97;;;1.05;77.96
10720;BME280;5411;58.386;15.560;2023-01-31T07:12:44;99094.75;;;1.01;77.59
10720;BME280;5411;58.386;15.560;2023-01-31T07:15:13;99093.78;;;1.02;78.03
10720;BME280;5411;58.386;15.560;2023-01-31T07:17:41;99103.13;;;1.04;77.77
10720;BME280;5411;58.386;15.560;2023-01-31T07:20:11;99114.31;;;1.06;77.07
10720;BME280;5411;58.386;15.560;2023-01-31T07:22:40;99111.16;;;1.11;77.57
10720;BME280;5411;58.386;15.560;2023-01-31T07:25:10;99108.53;;;1.11;76.79
10720;BME280;5411;58.386;15.560;2023-01-31T07:27:38;99106.38;;;1.15;76.92
10720;BME280;5411;58.386;15.560;2023-01-31T07:30:08;99108.19;;;1.14;77.55
10720;BME280;5411;58.386;15.560;2023-01-31T07:32:36;99104.91;;;1.12;77.23
10720;BME280;5411;58.386;15.560;2023-01-31T07:35:06;99114.28;;;1.15;77.51
10720;BME280;5411;58.386;15.560;2023-01-31T07:37:35;99113.94;;;1.18;77.70
10720;BME280;5411;58.386;15.560;2023-01-31T07:40:06;99124.28;;;1.19;77.09
10720;BME280;5411;58.386;15.560;2023-01-31T07:42:36;99118.66;;;1.22;76.23
10720;BME280;5411;58.386;15.560;2023-01-31T07:45:08;99118.31;;;1.25;77.10
10720;BME280;5411;58.386;15.560;2023-01-31T07:47:49;99117.97;;;1.28;77.02
10720;BME280;5411;58.386;15.560;2023-01-31T07:50:18;99111.22;;;1.26;75.61
10720;BME280;5411;58.386;15.560;2023-01-31T07:52:47;99113.19;;;1.32;75.94
10720;BME280;5411;58.386;15.560;2023-01-31T07:55:16;99107.72;;;1.33;75.60
10720;BME280;5411;58.386;15.560;2023-01-31T07:57:47;99106.72;;;1.34;75.66
10720;BME280;5411;58.386;15.560;2023-01-31T08:00:16;99113.13;;;1.40;75.49
10720;BME280;5411;58.386;15.560;2023-01-31T08:03:02;99105.03;;;1.41;74.17
10720;BME280;5411;58.386;15.560;2023-01-31T08:05:48;99107.78;;;1.48;74.64
10720;BME280;5411;58.386;15.560;2023-01-31T08:08:16;99108.91;;;1.54;73.70
10720;BME280;5411;58.386;15.560;2023-01-31T08:10:44;99111.19;;;1.57;73.94
10720;BME280;5411;58.386;15.560;2023-01-31T08:13:14;99108.31;;;1.66;73.52
10720;BME280;5411;58.386;15.560;2023-01-31T08:15:44;99112.50;;;1.75;73.45
10720;BME280;5411;58.386;15.560;2023-01-31T08:18:12;99105.56;;;1.83;73.16
10720;BME280;5411;58.386;15.560;2023-01-31T08:20:41;99115.19;;;1.90;72.70
10720;BME280;5411;58.386;15.560;2023-01-31T08:23:09;99111.22;;;1.94;72.13
10720;BME280;5411;58.386;15.560;2023-01-31T08:25:38;99109.66;;;2.00;72.98
10720;BME280;5411;58.386;15.560;2023-01-31T08:28:07;99114.22;;;2.06;72.07
10720;BME280;5411;58.386;15.560;2023-01-31T08:30:40;99108.44;;;2.10;71.68
10720;BME280;5411;58.386;15.560;2023-01-31T08:33:10;99107.25;;;2.13;71.10
10720;BME280;5411;58.386;15.560;2023-01-31T08:35:38;99104.34;;;2.23;70.13
10720;BME280;5411;58.386;15.560;2023-01-31T08:38:07;99103.63;;;2.29;70.48
10720;BME280;5411;58.386;15.560;2023-01-31T08:40:42;99107.72;;;2.31;69.75
10720;BME280;5411;58.386;15.560;2023-01-31T08:43:12;99096.81;;;2.34;69.96
10720;BME280;5411;58.386;15.560;2023-01-31T08:45:44;99093.16;;;2.35;69.71
10720;BME280;5411;58.386;15.560;2023-01-31T08:48:12;99092.59;;;2.40;69.04
10720;BME280;5411;58.386;15.560;2023-01-31T08:50:41;99085.72;;;2.39;70.04
10720;BME280;5411;58.386;15.560;2023-01-31T08:53:15;99070.06;;;2.37;70.00
10720;BME280;5411;58.386;15.560;2023-01-31T08:55:45;99076.34;;;2.36;70.73
10720;BME280;5411;58.386;15.560;2023-01-31T08:58:13;99068.97;;;2.32;70.15
10720;BME280;5411;58.386;15.560;2023-01-31T09:00:43;99063.84;;;2.30;70.75
10720;BME280;5411;58.386;15.560;2023-01-31T09:03:14;99068.66;;;2.27;71.82
10720;BME280;5411;58.386;15.560;2023-01-31T09:05:44;99068.06;;;2.25;72.21
10720;BME280;5411;58.386;15.560;2023-01-31T09:08:13;99068.06;;;2.25;72.10
10720;BME280;5411;58.386;15.560;2023-01-31T09:10:50;99051.59;;;2.23;72.91
10720;BME280;5411;58.386;15.560;2023-01-31T09:13:18;99051.84;;;2.28;72.48
10720;BME280;5411;58.386;15.560;2023-01-31T09:15:56;99047.03;;;2.31;72.69
10720;BME280;5411;58.386;15.560;2023-01-31T09:18:24;99037.47;;;2.30;73.20
10720;BME280;5411;58.386;15.560;2023-01-31T09:20:53;99038.94;;;2.33;73.02
10720;BME280;5411;58.386;15.560;2023-01-31T09:23:21;99034.28;;;2.35;72.85
10720;BME280;5411;58.386;15.560;2023-01-31T09:25:53;99029.25;;;2.40;73.35
10720;BME280;5411;58.386;15.560;2023-01-31T09:28:23;99033.00;;;2.45;73.11
10720;BME280;5411;58.386;15.560;2023-01-31T09:30:53;99032.28;;;2.52;73.19
10720;BME280;5411;58.386;15.560;2023-01-31T09:33:22;99033.16;;;2.59;72.43
10720;BME280;5411;58.386;15.560;2023-01-31T09:35:57;99029.41;;;2.68;72.62
10720;BME280;5411;58.386;15.560;2023-01-31T09:38:25;99023.41;;;2.74;72.04
10720;BME280;5411;58.386;15.560;2023-01-31T09:40:55;99021.84;;;2.79;71.30
10720;BME280;5411;58.386;15.560;2023-01-31T09:43:27;99016.56;;;2.79;71.50
10720;BME280;5411;58.386;15.560;2023-01-31T09:46:05;99016.19;;;2.82;70.81
10720;BME280;5411;58.386;15.560;2023-01-31T09:48:37;99005.63;;;2.82;71.24
10720;BME280;5411;58.386;15.560;2023-01-31T09:51:12;99000.16;;;2.84;71.21
10720;BME280;5411;58.386;15.560;2023-01-31T09:53:42;98994.88;;;2.84;70.88
10720;BME280;5411;58.386;15.560;2023-01-31T09:56:20;98977.84;;;2.86;70.84
10720;BME280;5411;58.386;15.560;2023-01-31T09:58:55;98976.47;;;2.91;70.93
10720;BME280;5411;58.386;15.560;2023-01-31T10:01:31;98978.09;;;2.92;70.49
10720;BME280;5411;58.386;15.560;2023-01-31T10:04:17;98966.31;;;2.94;70.53
10720;BME280;5411;58.386;15.560;2023-01-31T10:06:55;98963.69;;;2.94;70.96
10720;BME280;5411;58.386;15.560;2023-01-31T10:09:29;98959.03;;;2.96;71.21
10720;BME280;5411;58.386;15.560;2023-01-31T10:12:09;98943.81;;;2.98;71.33
10720;BME280;5411;58.386;15.560;2023-01-31T10:14:43;98951.19;;;3.03;71.17
10720;BME280;5411;58.386;15.560;2023-01-31T10:17:20;98949.16;;;3.05;71.37
10720;BME280;5411;58.386;15.560;2023-01-31T10:19:54;98947.13;;;3.07;71.62
10720;BME280;5411;58.386;15.560;2023-01-31T10:22:28;98948.59;;;3.09;71.50
10720;BME280;5411;58.386;15.560;2023-01-31T10:25:06;98946.94;;;3.08;71.44
10720;BME280;5411;58.386;15.560;2023-01-31T10:27:41;98941.25;;;3.05;71.54
10720;BME280;5411;58.386;15.560;2023-01-31T10:30:16;98951.03;;;3.11;71.28
10720;BME280;5411;58.386;15.560;2023-01-31T10:32:51;98936.00;;;3.11;70.97
10720;BME280;5411;58.386;15.560;2023-01-31T10:35:25;98935.25;;;3.17;71.65
10720;BME280;5411;58.386;15.560;2023-01-31T10:38:00;98931.22;;;3.21;70.84
10720;BME280;5411;58.386;15.560;2023-01-31T10:40:33;98921.53;;;3.29;71.55
10720;BME280;5411;58.386;15.560;2023-01-31T10:43:11;98897.53;;;3.30;71.08
10720;BME280;5411;58.386;15.560;2023-01-31T10:45:42;98890.66;;;3.36;71.42
10720;BME280;5411;58.386;15.560;2023-01-31T10:48:16;98897.19;;;3.40;71.19
10720;BME280;5411;58.386;15.560;2023-01-31T10:50:55;98894.19;;;3.43;70.60
10720;BME280;5411;58.386;15.560;2023-01-31T10:53:36;98887.47;;;3.47;71.07
10720;BME280;5411;58.386;15.560;2023-01-31T10:56:15;98877.13;;;3.45;70.88
10720;BME280;5411;58.386;15.560;2023-01-31T10:58:50;98877.34;;;3.50;70.59
10720;BME280;5411;58.386;15.560;2023-01-31T11:01:19;98871.69;;;3.60;70.28
10720;BME280;5411;58.386;15.560;2023-01-31T11:03:54;98862.78;;;3.68;70.09
10720;BME280;5411;58.386;15.560;2023-01-31T11:06:24;98862.63;;;3.76;69.97
10720;BME280;5411;58.386;15.560;2023-01-31T11:08:54;98860.03;;;3.89;70.04
10720;BME280;5411;58.386;15.560;2023-01-31T11:11:26;98861.66;;;3.90;69.75
10720;BME280;5411;58.386;15.560;2023-01-31T11:13:58;98864.94;;;3.92;69.76
10720;BME280;5411;58.386;15.560;2023-01-31T11:16:29;98853.59;;;3.98;69.46
10720;BME280;5411;58.386;15.560;2023-01-31T11:19:16;98848.53;;;4.10;70.00
10720;BME280;5411;58.386;15.560;2023-01-31T11:21:48;98841.66;;;4.22;69.16
10720;BME280;5411;58.386;15.560;2023-01-31T11:24:20;98833.31;;;4.32;68.80
10720;BME280;5411;58.386;15.560;2023-01-31T11:26:52;98832.53;;;4.44;68.66
10720;BME280;5411;58.386;15.560;2023-01-31T11:29:25;98830.09;;;4.56;68.63
10720;BME280;5411;58.386;15.560;2023-01-31T11:31:56;98826.63;;;4.69;68.32
10720;BME280;5411;58.386;15.560;2023-01-31T11:34:28;98826.84;;;4.80;68.46
10720;BME280;5411;58.386;15.560;2023-01-31T11:37:03;98837.25;;;4.82;67.40
10720;BME280;5411;58.386;15.560;2023-01-31T11:39:35;98830.75;;;4.78;67.98
10720;BME280;5411;58.386;15.560;2023-01-31T11:42:09;98838.25;;;4.74;68.42
10720;BME280;5411;58.386;15.560;2023-01-31T11:44:53;98832.38;;;4.65;68.53
10720;BME280;5411;58.386;15.560;2023-01-31T11:47:27;98830.09;;;4.56;66.98
10720;BME280;5411;58.386;15.560;2023-01-31T11:50:02;98825.19;;;4.46;68.26
10720;BME280;5411;58.386;15.560;2023-01-31T11:52:32;98829.25;;;4.42;68.30
10720;BME280;5411;58.386;15.560;2023-01-31T11:55:06;98823.34;;;4.34;67.87
10720;BME280;5411;58.386;15.560;2023-01-31T11:57:37;98832.53;;;4.38;68.59
10720;BME280;5411;58.386;15.560;2023-01-31T12:00:19;98828.25;;;4.37;68.92
10720;BME280;5411;58.386;15.560;2023-01-31T12:02:53;98821.09;;;4.30;69.84
10720;BME280;5411;58.386;15.560;2023-01-31T12:05:35;98813.78;;;4.33;69.62
10720;BME280;5411;58.386;15.560;2023-01-31T12:08:04;98808.91;;;4.36;68.72
10720;BME280;5411;58.386;15.560;2023-01-31T12:10:39;98807.88;;;4.44;68.65
10720;BME280;5411;58.386;15.560;2023-01-31T12:13:14;98801.59;;;4.51;68.38
10720;BME280;5411;58.386;15.560;2023-01-31T12:15:51;98802.00;;;4.61;68.01
10720;BME280;5411;58.386;15.560;2023-01-31T12:18:46;98793.22;;;4.74;67.00
10720;BME280;5411;58.386;15.560;2023-01-31T12:21:33;98785.50;;;4.73;67.45
10720;BME280;5411;58.386;15.560;2023-01-31T12:24:14;98781.00;;;4.73;66.93
10720;BME280;5411;58.386;15.560;2023-01-31T12:26:48;98766.13;;;4.72;66.83
10720;BME280;5411;58.386;15.560;2023-01-31T12:29:29;98768.78;;;4.65;67.08
10720;BME280;5411;58.386;15.560;2023-01-31T12:32:16;98764.91;;;4.55;67.06
10720;BME280;5411;58.386;15.560;2023-01-31T12:35:02;98741.69;;;4.50;67.72
10720;BME280;5411;58.386;15.560;2023-01-31T12:37:46;98741.69;;;4.44;68.14
10720;BME280;5411;58.386;15.560;2023-01-31T12:40:30;98733.97;;;4.36;68.27
10720;BME280;5411;58.386;15.560;2023-01-31T12:43:03;98732.94;;;4.23;68.19
10720;BME280;5411;58.386;15.560;2023-01-31T12:45:48;98733.94;;;4.09;69.02
10720;BME280;5411;58.386;15.560;2023-01-31T12:48:40;98729.00;;;4.00;69.26
10720;BME280;5411;58.386;15.560;2023-01-31T12:51:20;98719.84;;;3.89;70.55
10720;BME280;5411;58.386;15.560;2023-01-31T12:54:10;98720.03;;;3.81;70.25
10720;BME280;5411;58.386;15.560;2023-01-31T12:56:57;98718.19;;;3.75;71.09
10720;BME280;5411;58.386;15.560;2023-01-31T12:59:41;98716.78;;;3.72;71.52
10720;BME280;5411;58.386;15.560;2023-01-31T13:02:36;98699.66;;;3.75;71.98
10720;BME280;5411;58.386;15.560;2023-01-31T13:05:25;98699.66;;;3.75;72.13
10720;BME280;5411;58.386;15.560;2023-01-31T13:08:00;98697.84;;;3.75;72.63
10720;BME280;5411;58.386;15.560;2023-01-31T13:10:42;98692.97;;;3.72;72.37
10720;BME280;5411;58.386;15.560;2023-01-31T13:13:16;98690.53;;;3.71;72.39
10720;BME280;5411;58.386;15.560;2023-01-31T13:15:48;98675.66;;;3.70;71.90
10720;BME280;5411;58.386;15.560;2023-01-31T13:18:20;98673.03;;;3.70;72.21
10720;BME280;5411;58.386;15.560;2023-01-31T13:20:54;98665.91;;;3.70;72.04
10720;BME280;5411;58.386;15.560;2023-01-31T13:23:27;98667.13;;;3.68;72.81
10720;BME280;5411;58.386;15.560;2023-01-31T13:26:04;98660.41;;;3.58;72.77
10720;BME280;5411;58.386;15.560;2023-01-31T13:28:38;98646.13;;;3.59;73.06
10720;BME280;5411;58.386;15.560;2023-01-31T13:31:16;98641.28;;;3.56;73.16
10720;BME280;5411;58.386;15.560;2023-01-31T13:33:56;98642.47;;;3.54;73.96
10720;BME280;5411;58.386;15.560;2023-01-31T13:36:31;98631.91;;;3.54;73.87
10720;BME280;5411;58.386;15.560;2023-01-31T13:39:06;98619.69;;;3.53;74.12
10720;BME280;5411;58.386;15.560;2023-01-31T13:41:37;98626.22;;;3.57;73.97
10720;BME280;5411;58.386;15.560;2023-01-31T13:44:13;98613.81;;;3.57;74.08
10720;BME280;5411;58.386;15.560;2023-01-31T13:46:48;98618.69;;;3.61;73.55